sensor_id;sensor_type;location;lat;lon;timestamp;P1;durP1;ratioP1;P2;durP2;ratioP2
24891;SDS011;12954;50.688;10.908;2022-10-19T00:01:17;20.70;;;14.35;;
24891;SDS011;12954;50.688;10.908;2022-10-19T00:03:47;21.00;;;14.35;;
24891;SDS011;12954;50.688;10.908;2022-10-19T00:06:17;20.27;;;14.38;;
24891;SDS011;12954;50.688;10.908;2022-10-19T00:08:53;19.42;;;13.57;;
24891;SDS011;12954;50.688;10.908;2022-10-19T00:11:23;22.02;;;13.05;;
24891;SDS011;12954;50.688;10.908;2022-10-19T00:13:52;19.00;;;14.00;;
24891;SDS011;12954;50.688;10.908;2022-10-19T00:16:21;22.00;;;13.75;;
24891;SDS011;12954;50.688;10.908;2022-10-19T00:18:51;19.55;;;13.30;;
24891;SDS011;12954;50.688;10.908;2022-10-19T00:21:22;15.52;;;12.27;;
24891;SDS011;12954;50.688;10.908;2022-10-19T00:23:52;20.58;;;12.40;;
24891;SDS011;12954;50.688;10.908;2022-10-19T00:26:21;23.92;;;13.82;;
24891;SDS011;12954;50.688;10.908;2022-10-19T00:28:51;23.52;;;13.65;;
24891;SDS011;12954;50.688;10.908;2022-10-19T00:31:20;18.48;;;12.25;;
24891;SDS011;12954;50.688;10.908;2022-10-19T00:33:48;21.67;;;12.35;;
24891;SDS011;12954;50.688;10.908;2022-10-19T00:36:18;21.70;;;13.13;;
24891;SDS011;12954;50.688;10.908;2022-10-19T00:38:48;19.55;;;12.88;;
24891;SDS011;12954;50.688;10.908;2022-10-19T00:41:18;19.00;;;12.90;;
24891;SDS011;12954;50.688;10.908;2022-10-19T00:43:48;16.73;;;12.85;;
24891;SDS011;12954;50.688;10.908;2022-10-19T00:46:19;24.48;;;12.95;;
24891;SDS011;12954;50.688;10.908;2022-10-19T00:48:47;18.70;;;12.52;;
24891;SDS011;12954;50.688;10.908;2022-10-19T00:51:17;22.65;;;12.18;;
24891;SDS011;12954;50.688;10.908;2022-10-19T00:53:45;18.33;;;12.07;;
24891;SDS011;12954;50.688;10.908;2022-10-19T00:56:14;21.00;;;12.05;;
24891;SDS011;12954;50.688;10.908;2022-10-19T00:58:45;20.98;;;12.07;;
24891;SDS011;12954;50.688;10.908;2022-10-19T01:01:15;23.35;;;12.27;;
24891;SDS011;12954;50.688;10.908;2022-10-19T01:03:46;21.50;;;11.18;;
24891;SDS011;12954;50.688;10.908;2022-10-19T01:06:15;19.13;;;12.43;;
24891;SDS011;12954;50.688;10.908;2022-10-19T01:08:45;15.98;;;10.70;;
24891;SDS011;12954;50.688;10.908;2022-10-19T01:11:16;14.70;;;10.05;;
24891;SDS011;12954;50.688;10.908;2022-10-19T01:13:55;19.63;;;10.95;;
24891;SDS011;12954;50.688;10.908;2022-10-19T01:16:30;19.00;;;11.05;;
24891;SDS011;12954;50.688;10.908;2022-10-19T01:19:23;19.98;;;10.48;;
24891;SDS011;12954;50.688;10.908;2022-10-19T01:22:11;18.65;;;9.80;;
24891;SDS011;12954;50.688;10.908;2022-10-19T01:24:51;15.82;;;9.63;;
24891;SDS011;12954;50.688;10.908;2022-10-19T01:30:36;21.75;;;9.90;;
24891;SDS011;12954;50.688;10.908;2022-10-19T01:33:18;14.63;;;10.48;;
24891;SDS011;12954;50.688;10.908;2022-10-19T01:35:58;20.15;;;10.00;;
24891;SDS011;12954;50.688;10.908;2022-10-19T01:38:33;19.75;;;11.02;;
24891;SDS011;12954;50.688;10.908;2022-10-19T01:41:09;18.88;;;11.52;;
24891;SDS011;12954;50.688;10.908;2022-10-19T01:43:44;18.35;;;11.90;;
24891;SDS011;12954;50.688;10.908;2022-10-19T01:46:20;20.15;;;12.60;;
24891;SDS011;12954;50.688;10.908;2022-10-19T01:48:55;17.45;;;10.55;;
24891;SDS011;12954;50.688;10.908;2022-10-19T01:51:27;22.92;;;12.98;;
24891;SDS011;12954;50.688;10.908;2022-10-19T01:54:01;27.17;;;12.82;;
24891;SDS011;12954;50.688;10.908;2022-10-19T01:56:33;20.60;;;12.70;;
24891;SDS011;12954;50.688;10.908;2022-10-19T01:59:05;17.70;;;12.05;;
24891;SDS011;12954;50.688;10.908;2022-10-19T02:01:38;21.00;;;12.07;;
24891;SDS011;12954;50.688;10.908;2022-10-19T02:04:11;18.80;;;11.85;;
24891;SDS011;12954;50.688;10.908;2022-10-19T02:06:42;25.02;;;12.27;;
24891;SDS011;12954;50.688;10.908;2022-10-19T02:09:11;26.67;;;13.18;;
24891;SDS011;12954;50.688;10.908;2022-10-19T02:11:44;48.65;;;13.52;;
24891;SDS011;12954;50.688;10.908;2022-10-19T02:14:18;25.05;;;12.27;;
24891;SDS011;12954;50.688;10.908;2022-10-19T02:16:51;30.77;;;14.27;;
24891;SDS011;12954;50.688;10.908;2022-10-19T02:19:24;26.75;;;12.38;;
24891;SDS011;12954;50.688;10.908;2022-10-19T02:21:52;23.52;;;12.93;;
24891;SDS011;12954;50.688;10.908;2022-10-19T02:24:23;23.70;;;12.75;;
24891;SDS011;12954;50.688;10.908;2022-10-19T02:26:52;25.42;;;12.40;;
24891;SDS011;12954;50.688;10.908;2022-10-19T02:29:22;18.83;;;12.15;;
24891;SDS011;12954;50.688;10.908;2022-10-19T02:31:52;17.92;;;12.18;;
24891;SDS011;12954;50.688;10.908;2022-10-19T02:34:21;19.25;;;11.82;;
24891;SDS011;12954;50.688;10.908;2022-10-19T02:36:50;23.42;;;12.13;;
24891;SDS011;12954;50.688;10.908;2022-10-19T02:39:18;24.20;;;12.10;;
24891;SDS011;12954;50.688;10.908;2022-10-19T02:41:48;25.80;;;13.57;;
24891;SDS011;12954;50.688;10.908;2022-10-19T02:44:21;21.90;;;13.02;;
24891;SDS011;12954;50.688;10.908;2022-10-19T02:46:55;21.50;;;12.80;;
24891;SDS011;12954;50.688;10.908;2022-10-19T02:49:27;18.23;;;11.13;;
24891;SDS011;12954;50.688;10.908;2022-10-19T02:51:58;20.38;;;12.13;;
24891;SDS011;12954;50.688;10.908;2022-10-19T02:54:28;19.92;;;12.23;;
24891;SDS011;12954;50.688;10.908;2022-10-19T02:56:56;19.65;;;11.27;;
24891;SDS011;12954;50.688;10.908;2022-10-19T02:59:25;15.07;;;10.93;;
24891;SDS011;12954;50.688;10.908;2022-10-19T03:01:55;18.23;;;11.25;;
24891;SDS011;12954;50.688;10.908;2022-10-19T03:04:24;14.77;;;10.32;;
24891;SDS011;12954;50.688;10.908;2022-10-19T03:06:54;19.77;;;11.75;;
24891;SDS011;12954;50.688;10.908;2022-10-19T03:09:23;16.92;;;11.57;;
24891;SDS011;12954;50.688;10.908;2022-10-19T03:11:51;21.98;;;11.00;;
24891;SDS011;12954;50.688;10.908;2022-10-19T03:14:21;17.98;;;11.18;;
24891;SDS011;12954;50.688;10.908;2022-10-19T03:16:50;17.50;;;11.32;;
24891;SDS011;12954;50.688;10.908;2022-10-19T03:19:19;24.63;;;11.38;;
24891;SDS011;12954;50.688;10.908;2022-10-19T03:21:48;18.08;;;11.07;;
24891;SDS011;12954;50.688;10.908;2022-10-19T03:24:17;15.63;;;10.73;;
24891;SDS011;12954;50.688;10.908;2022-10-19T03:26:45;17.25;;;10.50;;
24891;SDS011;12954;50.688;10.908;2022-10-19T03:29:13;16.17;;;11.00;;
24891;SDS011;12954;50.688;10.908;2022-10-19T03:31:42;19.02;;;11.18;;
24891;SDS011;12954;50.688;10.908;2022-10-19T03:34:10;17.45;;;11.15;;
24891;SDS011;12954;50.688;10.908;2022-10-19T03:36:40;21.30;;;11.57;;
24891;SDS011;12954;50.688;10.908;2022-10-19T03:39:09;27.13;;;10.95;;
24891;SDS011;12954;50.688;10.908;2022-10-19T03:41:39;19.20;;;11.25;;
24891;SDS011;12954;50.688;10.908;2022-10-19T03:44:08;18.55;;;11.32;;
24891;SDS011;12954;50.688;10.908;2022-10-19T03:46:38;19.02;;;10.52;;
24891;SDS011;12954;50.688;10.908;2022-10-19T03:49:07;18.73;;;10.75;;
24891;SDS011;12954;50.688;10.908;2022-10-19T03:51:36;19.25;;;9.98;;
24891;SDS011;12954;50.688;10.908;2022-10-19T03:54:09;17.58;;;11.13;;
24891;SDS011;12954;50.688;10.908;2022-10-19T03:56:40;17.75;;;11.05;;
24891;SDS011;12954;50.688;10.908;2022-10-19T03:59:10;16.55;;;10.20;;
24891;SDS011;12954;50.688;10.908;2022-10-19T04:01:42;16.65;;;10.65;;
24891;SDS011;12954;50.688;10.908;2022-10-19T04:04:13;18.25;;;11.18;;
24891;SDS011;12954;50.688;10.908;2022-10-19T04:06:43;20.48;;;10.52;;
24891;SDS011;12954;50.688;10.908;2022-10-19T04:09:15;19.10;;;9.65;;
24891;SDS011;12954;50.688;10.908;2022-10-19T04:11:45;13.52;;;10.00;;
24891;SDS011;12954;50.688;10.908;2022-10-19T04:14:15;21.42;;;11.70;;
24891;SDS011;12954;50.688;10.908;2022-10-19T04:16:58;13.38;;;9.73;;
24891;SDS011;12954;50.688;10.908;2022-10-19T04:19:27;15.07;;;9.65;;
24891;SDS011;12954;50.688;10.908;2022-10-19T04:21:56;16.27;;;9.50;;
24891;SDS011;12954;50.688;10.908;2022-10-19T04:24:26;12.43;;;8.95;;
24891;SDS011;12954;50.688;10.908;2022-10-19T04:26:54;21.00;;;13.43;;
24891;SDS011;12954;50.688;10.908;2022-10-19T04:29:25;27.70;;;17.67;;
24891;SDS011;12954;50.688;10.908;2022-10-19T04:31:56;18.33;;;10.52;;
24891;SDS011;12954;50.688;10.908;2022-10-19T04:34:24;14.25;;;9.23;;
24891;SDS011;12954;50.688;10.908;2022-10-19T04:36:53;12.95;;;8.88;;
24891;SDS011;12954;50.688;10.908;2022-10-19T04:39:26;17.73;;;9.05;;
24891;SDS011;12954;50.688;10.908;2022-10-19T04:41:54;14.25;;;8.77;;
24891;SDS011;12954;50.688;10.908;2022-10-19T04:44:23;16.92;;;9.15;;
24891;SDS011;12954;50.688;10.908;2022-10-19T04:46:51;22.02;;;11.55;;
24891;SDS011;12954;50.688;10.908;2022-10-19T04:49:19;41.80;;;25.02;;
24891;SDS011;12954;50.688;10.908;2022-10-19T04:51:48;22.10;;;15.23;;
24891;SDS011;12954;50.688;10.908;2022-10-19T04:54:16;18.77;;;10.25;;
24891;SDS011;12954;50.688;10.908;2022-10-19T04:56:46;24.08;;;11.90;;
24891;SDS011;12954;50.688;10.908;2022-10-19T04:59:15;233.52;;;15.00;;
24891;SDS011;12954;50.688;10.908;2022-10-19T05:01:43;162.75;;;13.70;;
24891;SDS011;12954;50.688;10.908;2022-10-19T05:04:12;115.43;;;13.25;;
24891;SDS011;12954;50.688;10.908;2022-10-19T05:06:41;221.88;;;15.65;;
24891;SDS011;12954;50.688;10.908;2022-10-19T05:09:10;176.93;;;14.65;;
24891;SDS011;12954;50.688;10.908;2022-10-19T05:11:38;425.92;;;21.65;;
24891;SDS011;12954;50.688;10.908;2022-10-19T05:14:08;185.82;;;16.85;;
24891;SDS011;12954;50.688;10.908;2022-10-19T05:16:36;173.05;;;14.57;;
24891;SDS011;12954;50.688;10.908;2022-10-19T05:19:05;76.90;;;11.38;;
24891;SDS011;12954;50.688;10.908;2022-10-19T05:21:33;112.30;;;12.07;;
24891;SDS011;12954;50.688;10.908;2022-10-19T05:24:02;15.80;;;9.38;;
24891;SDS011;12954;50.688;10.908;2022-10-19T05:26:30;13.27;;;9.23;;
24891;SDS011;12954;50.688;10.908;2022-10-19T05:28:59;16.73;;;9.88;;
24891;SDS011;12954;50.688;10.908;2022-10-19T05:31:31;16.58;;;9.27;;
24891;SDS011;12954;50.688;10.908;2022-10-19T05:34:01;14.30;;;8.73;;
24891;SDS011;12954;50.688;10.908;2022-10-19T05:36:30;20.10;;;8.55;;
24891;SDS011;12954;50.688;10.908;2022-10-19T05:39:02;12.85;;;8.60;;
24891;SDS011;12954;50.688;10.908;2022-10-19T05:41:32;14.65;;;9.27;;
24891;SDS011;12954;50.688;10.908;2022-10-19T05:44:01;12.80;;;8.35;;
24891;SDS011;12954;50.688;10.908;2022-10-19T05:46:32;17.08;;;8.30;;
24891;SDS011;12954;50.688;10.908;2022-10-19T05:49:01;16.55;;;8.60;;
24891;SDS011;12954;50.688;10.908;2022-10-19T05:51:30;14.70;;;8.82;;
24891;SDS011;12954;50.688;10.908;2022-10-19T05:53:58;15.43;;;8.02;;
24891;SDS011;12954;50.688;10.908;2022-10-19T05:56:28;16.63;;;8.00;;
24891;SDS011;12954;50.688;10.908;2022-10-19T05:58:58;15.88;;;8.73;;
24891;SDS011;12954;50.688;10.908;2022-10-19T06:01:28;21.70;;;8.90;;
24891;SDS011;12954;50.688;10.908;2022-10-19T06:03:58;15.75;;;9.30;;
24891;SDS011;12954;50.688;10.908;2022-10-19T06:06:27;12.63;;;8.27;;
24891;SDS011;12954;50.688;10.908;2022-10-19T06:08:58;15.57;;;8.18;;
24891;SDS011;12954;50.688;10.908;2022-10-19T06:11:28;14.07;;;8.13;;
24891;SDS011;12954;50.688;10.908;2022-10-19T06:13:59;11.77;;;8.05;;
24891;SDS011;12954;50.688;10.908;2022-10-19T06:16:30;15.77;;;8.30;;
24891;SDS011;12954;50.688;10.908;2022-10-19T06:19:00;17.85;;;7.30;;
24891;SDS011;12954;50.688;10.908;2022-10-19T06:21:29;16.13;;;8.20;;
24891;SDS011;12954;50.688;10.908;2022-10-19T06:24:00;18.13;;;8.63;;
24891;SDS011;12954;50.688;10.908;2022-10-19T06:26:30;16.52;;;8.57;;
24891;SDS011;12954;50.688;10.908;2022-10-19T06:29:00;14.32;;;8.10;;
24891;SDS011;12954;50.688;10.908;2022-10-19T06:31:29;15.07;;;7.50;;
24891;SDS011;12954;50.688;10.908;2022-10-19T06:34:02;12.23;;;7.82;;
24891;SDS011;12954;50.688;10.908;2022-10-19T06:36:31;13.90;;;8.30;;
24891;SDS011;12954;50.688;10.908;2022-10-19T06:38:59;14.68;;;8.45;;
24891;SDS011;12954;50.688;10.908;2022-10-19T06:41:28;15.88;;;8.15;;
24891;SDS011;12954;50.688;10.908;2022-10-19T06:43:57;13.75;;;8.75;;
24891;SDS011;12954;50.688;10.908;2022-10-19T06:46:26;13.27;;;8.35;;
24891;SDS011;12954;50.688;10.908;2022-10-19T06:48:55;11.65;;;7.60;;
24891;SDS011;12954;50.688;10.908;2022-10-19T06:51:29;14.25;;;7.32;;
24891;SDS011;12954;50.688;10.908;2022-10-19T06:53:59;13.63;;;7.47;;
24891;SDS011;12954;50.688;10.908;2022-10-19T06:56:28;13.90;;;7.93;;
24891;SDS011;12954;50.688;10.908;2022-10-19T06:58:56;15.23;;;8.25;;
24891;SDS011;12954;50.688;10.908;2022-10-19T07:01:25;15.00;;;7.75;;
24891;SDS011;12954;50.688;10.908;2022-10-19T07:03:54;14.00;;;7.63;;
24891;SDS011;12954;50.688;10.908;2022-10-19T07:06:22;14.38;;;7.60;;
24891;SDS011;12954;50.688;10.908;2022-10-19T07:08:55;14.02;;;7.55;;
24891;SDS011;12954;50.688;10.908;2022-10-19T07:11:23;14.10;;;8.10;;
24891;SDS011;12954;50.688;10.908;2022-10-19T07:13:52;16.75;;;6.75;;
24891;SDS011;12954;50.688;10.908;2022-10-19T07:16:21;19.20;;;8.30;;
24891;SDS011;12954;50.688;10.908;2022-10-19T07:18:50;12.30;;;7.13;;
24891;SDS011;12954;50.688;10.908;2022-10-19T07:21:20;17.13;;;6.63;;
24891;SDS011;12954;50.688;10.908;2022-10-19T07:23:49;12.48;;;7.22;;
24891;SDS011;12954;50.688;10.908;2022-10-19T07:26:20;13.48;;;8.07;;
24891;SDS011;12954;50.688;10.908;2022-10-19T07:31:22;11.55;;;6.90;;
24891;SDS011;12954;50.688;10.908;2022-10-19T07:33:52;13.38;;;6.82;;
24891;SDS011;12954;50.688;10.908;2022-10-19T07:36:21;15.23;;;7.97;;
24891;SDS011;12954;50.688;10.908;2022-10-19T07:38:50;19.38;;;7.97;;
24891;SDS011;12954;50.688;10.908;2022-10-19T07:41:21;20.85;;;8.05;;
24891;SDS011;12954;50.688;10.908;2022-10-19T07:43:51;17.45;;;7.40;;
24891;SDS011;12954;50.688;10.908;2022-10-19T07:46:21;15.68;;;7.45;;
24891;SDS011;12954;50.688;10.908;2022-10-19T07:48:50;12.73;;;6.72;;
24891;SDS011;12954;50.688;10.908;2022-10-19T07:51:20;12.07;;;6.93;;
24891;SDS011;12954;50.688;10.908;2022-10-19T07:53:49;16.90;;;6.07;;
24891;SDS011;12954;50.688;10.908;2022-10-19T07:56:18;14.50;;;6.82;;
24891;SDS011;12954;50.688;10.908;2022-10-19T07:58:50;11.23;;;5.38;;
24891;SDS011;12954;50.688;10.908;2022-10-19T08:01:20;15.38;;;5.25;;
24891;SDS011;12954;50.688;10.908;2022-10-19T08:03:50;15.98;;;5.20;;
24891;SDS011;12954;50.688;10.908;2022-10-19T08:06:40;10.23;;;5.53;;
24891;SDS011;12954;50.688;10.908;2022-10-19T08:09:08;15.10;;;5.22;;
24891;SDS011;12954;50.688;10.908;2022-10-19T08:11:58;12.20;;;5.18;;
24891;SDS011;12954;50.688;10.908;2022-10-19T08:14:26;11.60;;;4.90;;
24891;SDS011;12954;50.688;10.908;2022-10-19T08:16:55;11.88;;;5.20;;
24891;SDS011;12954;50.688;10.908;2022-10-19T08:19:23;10.98;;;5.32;;
24891;SDS011;12954;50.688;10.908;2022-10-19T08:21:52;16.45;;;7.57;;
24891;SDS011;12954;50.688;10.908;2022-10-19T08:24:20;8.77;;;3.95;;
24891;SDS011;12954;50.688;10.908;2022-10-19T08:26:48;13.98;;;4.20;;
24891;SDS011;12954;50.688;10.908;2022-10-19T08:29:19;9.70;;;4.57;;
24891;SDS011;12954;50.688;10.908;2022-10-19T08:31:52;10.98;;;3.95;;
24891;SDS011;12954;50.688;10.908;2022-10-19T08:34:20;11.60;;;3.88;;
24891;SDS011;12954;50.688;10.908;2022-10-19T08:36:49;14.05;;;4.35;;
24891;SDS011;12954;50.688;10.908;2022-10-19T08:39:17;7.72;;;4.25;;
24891;SDS011;12954;50.688;10.908;2022-10-19T08:41:51;10.75;;;3.70;;
24891;SDS011;12954;50.688;10.908;2022-10-19T08:44:46;8.32;;;3.70;;
24891;SDS011;12954;50.688;10.908;2022-10-19T08:47:31;13.10;;;3.80;;
24891;SDS011;12954;50.688;10.908;2022-10-19T08:50:15;11.45;;;3.60;;
24891;SDS011;12954;50.688;10.908;2022-10-19T08:52:46;12.18;;;3.17;;
24891;SDS011;12954;50.688;10.908;2022-10-19T08:55:20;11.27;;;2.80;;
24891;SDS011;12954;50.688;10.908;2022-10-19T08:57:57;10.63;;;3.15;;
24891;SDS011;12954;50.688;10.908;2022-10-19T09:00:39;8.88;;;2.78;;
24891;SDS011;12954;50.688;10.908;2022-10-19T09:03:12;7.90;;;2.40;;
24891;SDS011;12954;50.688;10.908;2022-10-19T09:06:08;6.82;;;2.47;;
24891;SDS011;12954;50.688;10.908;2022-10-19T09:08:47;8.95;;;2.03;;
24891;SDS011;12954;50.688;10.908;2022-10-19T09:11:18;9.88;;;2.55;;
24891;SDS011;12954;50.688;10.908;2022-10-19T09:13:54;7.20;;;2.75;;
24891;SDS011;12954;50.688;10.908;2022-10-19T09:16:32;8.43;;;2.78;;
24891;SDS011;12954;50.688;10.908;2022-10-19T09:19:02;10.00;;;2.83;;
24891;SDS011;12954;50.688;10.908;2022-10-19T09:21:40;12.05;;;2.55;;
24891;SDS011;12954;50.688;10.908;2022-10-19T09:24:18;8.73;;;2.60;;
24891;SDS011;12954;50.688;10.908;2022-10-19T09:26:56;6.70;;;2.60;;
24891;SDS011;12954;50.688;10.908;2022-10-19T09:29:28;9.95;;;3.25;;
24891;SDS011;12954;50.688;10.908;2022-10-19T09:32:05;12.07;;;5.47;;
24891;SDS011;12954;50.688;10.908;2022-10-19T09:34:42;13.32;;;6.05;;
24891;SDS011;12954;50.688;10.908;2022-10-19T09:37:13;8.13;;;3.42;;
24891;SDS011;12954;50.688;10.908;2022-10-19T09:39:51;11.45;;;3.50;;
24891;SDS011;12954;50.688;10.908;2022-10-19T09:42:21;6.05;;;2.83;;
24891;SDS011;12954;50.688;10.908;2022-10-19T09:44:54;9.52;;;2.88;;
24891;SDS011;12954;50.688;10.908;2022-10-19T09:47:31;7.22;;;2.92;;
24891;SDS011;12954;50.688;10.908;2022-10-19T09:50:06;7.63;;;2.90;;
24891;SDS011;12954;50.688;10.908;2022-10-19T09:52:41;8.35;;;3.20;;
24891;SDS011;12954;50.688;10.908;2022-10-19T09:55:17;10.32;;;2.95;;
24891;SDS011;12954;50.688;10.908;2022-10-19T09:58:00;8.30;;;3.27;;
24891;SDS011;12954;50.688;10.908;2022-10-19T10:00:33;6.05;;;2.97;;
24891;SDS011;12954;50.688;10.908;2022-10-19T10:03:05;11.73;;;3.37;;
24891;SDS011;12954;50.688;10.908;2022-10-19T10:05:34;8.40;;;3.33;;
24891;SDS011;12954;50.688;10.908;2022-10-19T10:08:10;10.45;;;3.22;;
24891;SDS011;12954;50.688;10.908;2022-10-19T10:10:41;10.55;;;3.00;;
24891;SDS011;12954;50.688;10.908;2022-10-19T10:13:14;11.20;;;3.15;;
24891;SDS011;12954;50.688;10.908;2022-10-19T10:15:46;6.95;;;3.17;;
24891;SDS011;12954;50.688;10.908;2022-10-19T10:18:20;10.85;;;2.90;;
24891;SDS011;12954;50.688;10.908;2022-10-19T10:20:58;11.30;;;2.72;;
24891;SDS011;12954;50.688;10.908;2022-10-19T10:23:32;5.82;;;2.90;;
24891;SDS011;12954;50.688;10.908;2022-10-19T10:26:04;9.95;;;3.15;;
24891;SDS011;12954;50.688;10.908;2022-10-19T10:28:45;7.65;;;2.92;;
24891;SDS011;12954;50.688;10.908;2022-10-19T10:31:17;8.93;;;3.50;;
24891;SDS011;12954;50.688;10.908;2022-10-19T10:33:57;7.85;;;3.15;;
24891;SDS011;12954;50.688;10.908;2022-10-19T10:36:49;6.57;;;3.30;;
24891;SDS011;12954;50.688;10.908;2022-10-19T10:39:20;8.27;;;3.15;;
24891;SDS011;12954;50.688;10.908;2022-10-19T10:41:52;10.90;;;5.18;;
24891;SDS011;12954;50.688;10.908;2022-10-19T10:44:23;17.63;;;6.18;;
24891;SDS011;12954;50.688;10.908;2022-10-19T10:46:56;11.07;;;8.43;;
24891;SDS011;12954;50.688;10.908;2022-10-19T10:49:27;9.18;;;3.85;;
24891;SDS011;12954;50.688;10.908;2022-10-19T10:52:03;13.40;;;3.75;;
24891;SDS011;12954;50.688;10.908;2022-10-19T10:54:34;8.50;;;3.03;;
24891;SDS011;12954;50.688;10.908;2022-10-19T10:57:05;6.75;;;3.08;;
24891;SDS011;12954;50.688;10.908;2022-10-19T10:59:41;9.07;;;3.67;;
24891;SDS011;12954;50.688;10.908;2022-10-19T11:02:23;7.97;;;3.50;;
24891;SDS011;12954;50.688;10.908;2022-10-19T11:05:02;8.50;;;3.60;;
24891;SDS011;12954;50.688;10.908;2022-10-19T11:07:34;9.02;;;2.95;;
24891;SDS011;12954;50.688;10.908;2022-10-19T11:10:10;8.50;;;3.07;;
24891;SDS011;12954;50.688;10.908;2022-10-19T11:12:49;8.85;;;3.05;;
24891;SDS011;12954;50.688;10.908;2022-10-19T11:15:24;6.18;;;2.78;;
24891;SDS011;12954;50.688;10.908;2022-10-19T11:18:04;9.02;;;3.60;;
24891;SDS011;12954;50.688;10.908;2022-10-19T11:20:44;7.38;;;3.70;;
24891;SDS011;12954;50.688;10.908;2022-10-19T11:23:21;8.77;;;3.95;;
24891;SDS011;12954;50.688;10.908;2022-10-19T11:26:06;8.93;;;3.35;;
24891;SDS011;12954;50.688;10.908;2022-10-19T11:28:47;7.97;;;4.18;;
24891;SDS011;12954;50.688;10.908;2022-10-19T11:31:32;10.77;;;3.58;;
24891;SDS011;12954;50.688;10.908;2022-10-19T11:34:14;11.27;;;3.78;;
24891;SDS011;12954;50.688;10.908;2022-10-19T11:36:56;7.43;;;4.07;;
24891;SDS011;12954;50.688;10.908;2022-10-19T11:39:34;11.27;;;3.83;;
24891;SDS011;12954;50.688;10.908;2022-10-19T11:42:13;13.65;;;5.25;;
24891;SDS011;12954;50.688;10.908;2022-10-19T11:44:52;11.90;;;4.93;;
24891;SDS011;12954;50.688;10.908;2022-10-19T11:47:39;15.15;;;4.95;;
24891;SDS011;12954;50.688;10.908;2022-10-19T11:50:29;8.57;;;4.03;;
24891;SDS011;12954;50.688;10.908;2022-10-19T11:53:17;9.68;;;4.00;;
24891;SDS011;12954;50.688;10.908;2022-10-19T11:55:55;8.77;;;4.18;;
24891;SDS011;12954;50.688;10.908;2022-10-19T11:58:33;9.25;;;4.55;;
24891;SDS011;12954;50.688;10.908;2022-10-19T12:01:14;8.25;;;3.67;;
24891;SDS011;12954;50.688;10.908;2022-10-19T12:09:32;6.75;;;3.60;;
24891;SDS011;12954;50.688;10.908;2022-10-19T12:12:22;8.57;;;4.20;;
24891;SDS011;12954;50.688;10.908;2022-10-19T12:15:00;7.55;;;3.40;;
24891;SDS011;12954;50.688;10.908;2022-10-19T12:17:40;9.77;;;4.18;;
24891;SDS011;12954;50.688;10.908;2022-10-19T12:20:15;12.45;;;4.00;;
24891;SDS011;12954;50.688;10.908;2022-10-19T12:22:49;7.47;;;3.67;;
24891;SDS011;12954;50.688;10.908;2022-10-19T12:25:19;8.23;;;3.28;;
24891;SDS011;12954;50.688;10.908;2022-10-19T12:27:48;9.55;;;3.53;;
24891;SDS011;12954;50.688;10.908;2022-10-19T12:30:18;6.95;;;3.17;;
24891;SDS011;12954;50.688;10.908;2022-10-19T12:32:54;6.07;;;3.38;;
24891;SDS011;12954;50.688;10.908;2022-10-19T12:35:45;12.00;;;4.20;;
24891;SDS011;12954;50.688;10.908;2022-10-19T12:38:21;7.68;;;3.92;;
24891;SDS011;12954;50.688;10.908;2022-10-19T12:40:59;9.18;;;4.10;;
24891;SDS011;12954;50.688;10.908;2022-10-19T12:43:34;10.77;;;5.00;;
24891;SDS011;12954;50.688;10.908;2022-10-19T12:46:13;12.90;;;8.20;;
24891;SDS011;12954;50.688;10.908;2022-10-19T12:51:52;10.30;;;4.00;;
24891;SDS011;12954;50.688;10.908;2022-10-19T12:54:22;7.47;;;3.55;;
24891;SDS011;12954;50.688;10.908;2022-10-19T12:56:54;8.63;;;3.88;;
24891;SDS011;12954;50.688;10.908;2022-10-19T12:59:25;7.70;;;3.67;;
24891;SDS011;12954;50.688;10.908;2022-10-19T13:01:56;8.80;;;3.30;;
24891;SDS011;12954;50.688;10.908;2022-10-19T13:04:26;6.55;;;3.30;;
24891;SDS011;12954;50.688;10.908;2022-10-19T13:07:00;8.50;;;3.38;;
24891;SDS011;12954;50.688;10.908;2022-10-19T13:09:31;3.83;;;2.65;;
24891;SDS011;12954;50.688;10.908;2022-10-19T13:15:08;8.13;;;3.40;;
24891;SDS011;12954;50.688;10.908;2022-10-19T13:21:44;7.90;;;2.80;;
24891;SDS011;12954;50.688;10.908;2022-10-19T13:24:32;6.93;;;2.97;;
24891;SDS011;12954;50.688;10.908;2022-10-19T13:30:56;6.15;;;3.20;;
24891;SDS011;12954;50.688;10.908;2022-10-19T13:36:11;7.85;;;3.05;;
24891;SDS011;12954;50.688;10.908;2022-10-19T13:38:40;7.18;;;2.92;;
24891;SDS011;12954;50.688;10.908;2022-10-19T13:41:14;7.30;;;3.20;;
24891;SDS011;12954;50.688;10.908;2022-10-19T13:43:53;12.40;;;5.18;;
24891;SDS011;12954;50.688;10.908;2022-10-19T13:49:29;10.43;;;3.13;;
24891;SDS011;12954;50.688;10.908;2022-10-19T13:52:17;6.03;;;3.10;;
24891;SDS011;12954;50.688;10.908;2022-10-19T13:55:17;11.15;;;3.05;;
24891;SDS011;12954;50.688;10.908;2022-10-19T14:01:01;5.82;;;2.67;;
24891;SDS011;12954;50.688;10.908;2022-10-19T14:03:50;6.35;;;2.60;;
24891;SDS011;12954;50.688;10.908;2022-10-19T14:06:35;10.27;;;3.55;;
24891;SDS011;12954;50.688;10.908;2022-10-19T14:12:20;6.47;;;2.30;;
24891;SDS011;12954;50.688;10.908;2022-10-19T14:14:50;6.28;;;2.53;;
24891;SDS011;12954;50.688;10.908;2022-10-19T14:17:20;8.10;;;3.00;;
24891;SDS011;12954;50.688;10.908;2022-10-19T14:19:51;10.05;;;2.60;;
24891;SDS011;12954;50.688;10.908;2022-10-19T14:22:25;5.63;;;2.38;;
24891;SDS011;12954;50.688;10.908;2022-10-19T14:24:59;6.13;;;2.83;;
24891;SDS011;12954;50.688;10.908;2022-10-19T14:27:28;7.93;;;2.65;;
24891;SDS011;12954;50.688;10.908;2022-10-19T14:29:58;6.45;;;2.70;;
24891;SDS011;12954;50.688;10.908;2022-10-19T14:32:27;7.13;;;2.50;;
24891;SDS011;12954;50.688;10.908;2022-10-19T14:35:02;3.72;;;2.50;;
24891;SDS011;12954;50.688;10.908;2022-10-19T14:37:34;7.03;;;2.67;;
24891;SDS011;12954;50.688;10.908;2022-10-19T14:40:05;10.52;;;2.75;;
24891;SDS011;12954;50.688;10.908;2022-10-19T14:42:53;5.88;;;2.67;;
24891;SDS011;12954;50.688;10.908;2022-10-19T14:45:23;7.72;;;2.67;;
24891;SDS011;12954;50.688;10.908;2022-10-19T14:47:54;7.70;;;2.53;;
24891;SDS011;12954;50.688;10.908;2022-10-19T14:53:19;3.83;;;2.47;;
24891;SDS011;12954;50.688;10.908;2022-10-19T14:55:58;5.57;;;2.20;;
24891;SDS011;12954;50.688;10.908;2022-10-19T14:58:29;12.63;;;5.25;;
24891;SDS011;12954;50.688;10.908;2022-10-19T15:01:05;10.63;;;5.20;;
24891;SDS011;12954;50.688;10.908;2022-10-19T15:03:34;6.63;;;3.42;;
24891;SDS011;12954;50.688;10.908;2022-10-19T15:06:13;10.85;;;3.28;;
24891;SDS011;12954;50.688;10.908;2022-10-19T15:08:47;4.97;;;2.17;;
24891;SDS011;12954;50.688;10.908;2022-10-19T15:11:26;3.97;;;2.10;;
24891;SDS011;12954;50.688;10.908;2022-10-19T15:13:58;6.13;;;2.00;;
24891;SDS011;12954;50.688;10.908;2022-10-19T15:16:30;6.30;;;2.80;;
24891;SDS011;12954;50.688;10.908;2022-10-19T15:19:02;5.30;;;2.35;;
24891;SDS011;12954;50.688;10.908;2022-10-19T15:21:31;5.72;;;1.70;;
24891;SDS011;12954;50.688;10.908;2022-10-19T15:24:15;4.47;;;2.00;;
24891;SDS011;12954;50.688;10.908;2022-10-19T15:26:52;7.95;;;2.05;;
24891;SDS011;12954;50.688;10.908;2022-10-19T15:29:34;4.15;;;1.90;;
24891;SDS011;12954;50.688;10.908;2022-10-19T15:32:13;7.95;;;1.80;;
24891;SDS011;12954;50.688;10.908;2022-10-19T15:34:42;5.40;;;1.90;;